Terminal Aerodrome Forecast
Issued by NWS

Home | Current Version | Previous Version | Text Only | Print | Product List | Glossary On
Versions: 1 2 3 4 5 6 7 8 9 10 11 12 13 14 15 16 17 18 19 20 21 22 23
000
FTUS43 KDLH 240540
TAFBRD
TAF
KBRD 240540Z 2406/2506 VRB10G23KT 1SM TSRA BR VV008CB
     FM240630 17005KT 6SM BR VCSH BKN013
     FM240900 24005KT P6SM SCT013
      TEMPO 2409/2411 5SM BR SCT006 BKN013
     FM241500 29012G19KT P6SM SCT025
     FM250100 29005KT P6SM SCT250=

USA.gov is the U.S. government's official web portal to all federal, state and local government web resources and services.